Terminal Aerodrome Forecast
Issued by NWS

Home | Current Version | Previous Version | Text Only | Print | Product List | Glossary On
Versions: 1 2 3 4 5 6 7 8 9 10 11 12 13
000
FTUS45 KRIW 051124
TAFWRL
TAF
KWRL 051124Z 0512/0612 VRB05KT P6SM SCT100
     FM051400 VRB05KT P6SM BKN100
     FM052300 34013KT P6SM VCTS SCT060CB BKN090
     FM060200 35012KT P6SM VCSH BKN070
     FM060600 VRB06KT P6SM SCT100=

USA.gov is the U.S. government's official web portal to all federal, state and local government web resources and services.